sensor_id;sensor_type;location;lat;lon;timestamp;P1;P2;P0
45440;PMS5003;31189;38.790;-77.084;2024-03-02T00:00:23;5;4;
45440;PMS5003;31189;38.790;-77.084;2024-03-02T00:02:49;4;3;
45440;PMS5003;31189;38.790;-77.084;2024-03-02T00:05:14;4;4;
45440;PMS5003;31189;38.790;-77.084;2024-03-02T00:07:40;5;5;
45440;PMS5003;31189;38.790;-77.084;2024-03-02T00:10:07;6;5;
45440;PMS5003;31189;38.790;-77.084;2024-03-02T00:12:31;2;2;
45440;PMS5003;31189;38.790;-77.084;2024-03-02T00:14:57;6;6;
45440;PMS5003;31189;38.790;-77.084;2024-03-02T00:17:24;6;4;
45440;PMS5003;31189;38.790;-77.084;2024-03-02T00:19:48;4;4;
45440;PMS5003;31189;38.790;-77.084;2024-03-02T00:22:14;4;4;
45440;PMS5003;31189;38.790;-77.084;2024-03-02T00:24:39;6;5;
45440;PMS5003;31189;38.790;-77.084;2024-03-02T00:27:05;7;3;
45440;PMS5003;31189;38.790;-77.084;2024-03-02T00:29:31;7;4;
45440;PMS5003;31189;38.790;-77.084;2024-03-02T00:31:56;8;6;
45440;PMS5003;31189;38.790;-77.084;2024-03-02T00:34:22;4;4;
45440;PMS5003;31189;38.790;-77.084;2024-03-02T00:36:48;6;4;
45440;PMS5003;31189;38.790;-77.084;2024-03-02T00:39:14;3;3;
45440;PMS5003;31189;38.790;-77.084;2024-03-02T00:41:41;5;4;
45440;PMS5003;31189;38.790;-77.084;2024-03-02T00:44:05;6;4;
45440;PMS5003;31189;38.790;-77.084;2024-03-02T00:46:32;6;4;
45440;PMS5003;31189;38.790;-77.084;2024-03-02T00:48:56;4;4;
45440;PMS5003;31189;38.790;-77.084;2024-03-02T00:51:22;6;6;
45440;PMS5003;31189;38.790;-77.084;2024-03-02T00:53:47;5;4;
45440;PMS5003;31189;38.790;-77.084;2024-03-02T00:56:13;4;4;
45440;PMS5003;31189;38.790;-77.084;2024-03-02T00:58:38;7;4;
45440;PMS5003;31189;38.790;-77.084;2024-03-02T01:01:04;4;4;
45440;PMS5003;31189;38.790;-77.084;2024-03-02T01:03:30;4;4;
45440;PMS5003;31189;38.790;-77.084;2024-03-02T01:05:55;2;2;
45440;PMS5003;31189;38.790;-77.084;2024-03-02T01:08:21;7;4;
45440;PMS5003;31189;38.790;-77.084;2024-03-02T01:10:47;4;4;
45440;PMS5003;31189;38.790;-77.084;2024-03-02T01:13:12;6;4;
45440;PMS5003;31189;38.790;-77.084;2024-03-02T01:15:38;3;3;
45440;PMS5003;31189;38.790;-77.084;2024-03-02T01:18:04;7;4;
45440;PMS5003;31189;38.790;-77.084;2024-03-02T01:20:29;5;4;
45440;PMS5003;31189;38.790;-77.084;2024-03-02T01:22:55;3;2;
45440;PMS5003;31189;38.790;-77.084;2024-03-02T01:25:21;5;5;
45440;PMS5003;31189;38.790;-77.084;2024-03-02T01:27:46;6;3;
45440;PMS5003;31189;38.790;-77.084;2024-03-02T01:30:12;5;5;
45440;PMS5003;31189;38.790;-77.084;2024-03-02T01:32:38;4;4;
45440;PMS5003;31189;38.790;-77.084;2024-03-02T01:35:03;8;6;
45440;PMS5003;31189;38.790;-77.084;2024-03-02T01:37:29;5;4;
45440;PMS5003;31189;38.790;-77.084;2024-03-02T01:39:54;6;6;
45440;PMS5003;31189;38.790;-77.084;2024-03-02T01:42:20;5;5;
45440;PMS5003;31189;38.790;-77.084;2024-03-02T01:44:46;7;4;
45440;PMS5003;31189;38.790;-77.084;2024-03-02T01:47:12;5;4;
45440;PMS5003;31189;38.790;-77.084;2024-03-02T01:49:37;8;6;
45440;PMS5003;31189;38.790;-77.084;2024-03-02T01:52:03;5;5;
45440;PMS5003;31189;38.790;-77.084;2024-03-02T01:54:29;12;8;
45440;PMS5003;31189;38.790;-77.084;2024-03-02T01:56:54;10;5;
45440;PMS5003;31189;38.790;-77.084;2024-03-02T01:59:20;6;4;
45440;PMS5003;31189;38.790;-77.084;2024-03-02T02:01:45;10;7;
45440;PMS5003;31189;38.790;-77.084;2024-03-02T02:04:11;6;6;
45440;PMS5003;31189;38.790;-77.084;2024-03-02T02:06:37;8;8;
45440;PMS5003;31189;38.790;-77.084;2024-03-02T02:09:03;8;5;
45440;PMS5003;31189;38.790;-77.084;2024-03-02T02:11:28;7;6;
45440;PMS5003;31189;38.790;-77.084;2024-03-02T02:13:54;8;5;
45440;PMS5003;31189;38.790;-77.084;2024-03-02T02:16:19;8;6;
45440;PMS5003;31189;38.790;-77.084;2024-03-02T02:18:45;6;6;
45440;PMS5003;31189;38.790;-77.084;2024-03-02T02:21:11;8;7;
45440;PMS5003;31189;38.790;-77.084;2024-03-02T02:23:36;7;5;
45440;PMS5003;31189;38.790;-77.084;2024-03-02T02:26:02;7;5;
45440;PMS5003;31189;38.790;-77.084;2024-03-02T02:28:27;7;7;
45440;PMS5003;31189;38.790;-77.084;2024-03-02T02:30:54;7;7;
45440;PMS5003;31189;38.790;-77.084;2024-03-02T02:33:19;11;6;
45440;PMS5003;31189;38.790;-77.084;2024-03-02T02:35:44;7;6;
45440;PMS5003;31189;38.790;-77.084;2024-03-02T02:38:10;7;5;
45440;PMS5003;31189;38.790;-77.084;2024-03-02T02:40:36;7;7;
45440;PMS5003;31189;38.790;-77.084;2024-03-02T02:43:01;7;4;
45440;PMS5003;31189;38.790;-77.084;2024-03-02T02:45:27;5;4;
45440;PMS5003;31189;38.790;-77.084;2024-03-02T02:47:52;8;6;
45440;PMS5003;31189;38.790;-77.084;2024-03-02T02:50:18;7;4;
45440;PMS5003;31189;38.790;-77.084;2024-03-02T02:52:44;6;5;
45440;PMS5003;31189;38.790;-77.084;2024-03-02T02:55:10;8;6;
45440;PMS5003;31189;38.790;-77.084;2024-03-02T02:57:35;9;7;
45440;PMS5003;31189;38.790;-77.084;2024-03-02T03:00:01;6;4;
45440;PMS5003;31189;38.790;-77.084;2024-03-02T03:02:28;7;6;
45440;PMS5003;31189;38.790;-77.084;2024-03-02T03:04:52;8;6;
45440;PMS5003;31189;38.790;-77.084;2024-03-02T03:07:18;8;6;
45440;PMS5003;31189;38.790;-77.084;2024-03-02T03:09:43;7;5;
45440;PMS5003;31189;38.790;-77.084;2024-03-02T03:12:09;10;7;
45440;PMS5003;31189;38.790;-77.084;2024-03-02T03:14:35;7;7;
45440;PMS5003;31189;38.790;-77.084;2024-03-02T03:17:00;9;7;
45440;PMS5003;31189;38.790;-77.084;2024-03-02T03:19:26;8;7;
45440;PMS5003;31189;38.790;-77.084;2024-03-02T03:21:52;8;8;
45440;PMS5003;31189;38.790;-77.084;2024-03-02T03:24:17;8;7;
45440;PMS5003;31189;38.790;-77.084;2024-03-02T03:26:43;8;6;
45440;PMS5003;31189;38.790;-77.084;2024-03-02T03:29:09;6;6;
45440;PMS5003;31189;38.790;-77.084;2024-03-02T03:31:35;10;8;
45440;PMS5003;31189;38.790;-77.084;2024-03-02T03:34:00;6;6;
45440;PMS5003;31189;38.790;-77.084;2024-03-02T03:36:26;6;6;
45440;PMS5003;31189;38.790;-77.084;2024-03-02T03:38:51;10;6;
45440;PMS5003;31189;38.790;-77.084;2024-03-02T03:41:17;8;6;
45440;PMS5003;31189;38.790;-77.084;2024-03-02T03:43:43;9;6;
45440;PMS5003;31189;38.790;-77.084;2024-03-02T03:46:09;8;6;
45440;PMS5003;31189;38.790;-77.084;2024-03-02T03:48:35;8;6;
45440;PMS5003;31189;38.790;-77.084;2024-03-02T03:51:00;9;7;
45440;PMS5003;31189;38.790;-77.084;2024-03-02T03:53:25;9;8;
45440;PMS5003;31189;38.790;-77.084;2024-03-02T03:55:51;6;6;
45440;PMS5003;31189;38.790;-77.084;2024-03-02T03:58:17;9;5;
45440;PMS5003;31189;38.790;-77.084;2024-03-02T04:00:42;4;4;
45440;PMS5003;31189;38.790;-77.084;2024-03-02T04:03:09;7;6;
45440;PMS5003;31189;38.790;-77.084;2024-03-02T04:05:34;6;6;
45440;PMS5003;31189;38.790;-77.084;2024-03-02T04:08:00;5;5;
45440;PMS5003;31189;38.790;-77.084;2024-03-02T04:10:25;5;5;
45440;PMS5003;31189;38.790;-77.084;2024-03-02T04:12:51;6;5;
45440;PMS5003;31189;38.790;-77.084;2024-03-02T04:15:17;8;6;
45440;PMS5003;31189;38.790;-77.084;2024-03-02T04:17:42;7;4;
45440;PMS5003;31189;38.790;-77.084;2024-03-02T04:20:08;10;6;
45440;PMS5003;31189;38.790;-77.084;2024-03-02T04:22:34;9;6;
45440;PMS5003;31189;38.790;-77.084;2024-03-02T04:24:59;9;6;
45440;PMS5003;31189;38.790;-77.084;2024-03-02T04:27:25;7;5;
45440;PMS5003;31189;38.790;-77.084;2024-03-02T04:29:51;6;3;
45440;PMS5003;31189;38.790;-77.084;2024-03-02T04:32:16;11;5;
45440;PMS5003;31189;38.790;-77.084;2024-03-02T04:34:41;6;5;
45440;PMS5003;31189;38.790;-77.084;2024-03-02T04:37:07;4;4;
45440;PMS5003;31189;38.790;-77.084;2024-03-02T04:39:34;7;5;
45440;PMS5003;31189;38.790;-77.084;2024-03-02T04:41:59;8;4;
45440;PMS5003;31189;38.790;-77.084;2024-03-02T04:44:24;5;5;
45440;PMS5003;31189;38.790;-77.084;2024-03-02T04:46:50;5;5;
45440;PMS5003;31189;38.790;-77.084;2024-03-02T04:49:15;7;5;
45440;PMS5003;31189;38.790;-77.084;2024-03-02T04:51:41;6;6;
45440;PMS5003;31189;38.790;-77.084;2024-03-02T04:54:06;7;6;
45440;PMS5003;31189;38.790;-77.084;2024-03-02T04:56:32;5;5;
45440;PMS5003;31189;38.790;-77.084;2024-03-02T04:58:58;7;5;
45440;PMS5003;31189;38.790;-77.084;2024-03-02T05:01:23;10;6;
45440;PMS5003;31189;38.790;-77.084;2024-03-02T05:03:49;7;5;
45440;PMS5003;31189;38.790;-77.084;2024-03-02T05:06:14;5;5;
45440;PMS5003;31189;38.790;-77.084;2024-03-02T05:08:40;7;5;
45440;PMS5003;31189;38.790;-77.084;2024-03-02T05:11:06;5;5;
45440;PMS5003;31189;38.790;-77.084;2024-03-02T05:13:31;4;4;
45440;PMS5003;31189;38.790;-77.084;2024-03-02T05:15:57;6;6;
45440;PMS5003;31189;38.790;-77.084;2024-03-02T05:18:23;5;5;
45440;PMS5003;31189;38.790;-77.084;2024-03-02T05:20:48;8;5;
45440;PMS5003;31189;38.790;-77.084;2024-03-02T05:23:14;5;5;
45440;PMS5003;31189;38.790;-77.084;2024-03-02T05:25:40;6;5;
45440;PMS5003;31189;38.790;-77.084;2024-03-02T05:28:05;6;3;
45440;PMS5003;31189;38.790;-77.084;2024-03-02T05:30:31;4;4;
45440;PMS5003;31189;38.790;-77.084;2024-03-02T05:32:57;7;6;
45440;PMS5003;31189;38.790;-77.084;2024-03-02T05:35:22;8;6;
45440;PMS5003;31189;38.790;-77.084;2024-03-02T05:37:48;5;5;
45440;PMS5003;31189;38.790;-77.084;2024-03-02T05:40:14;8;7;
45440;PMS5003;31189;38.790;-77.084;2024-03-02T05:42:39;7;6;
45440;PMS5003;31189;38.790;-77.084;2024-03-02T05:45:05;10;7;
45440;PMS5003;31189;38.790;-77.084;2024-03-02T05:47:30;7;5;
45440;PMS5003;31189;38.790;-77.084;2024-03-02T05:49:56;5;4;
45440;PMS5003;31189;38.790;-77.084;2024-03-02T05:52:22;9;8;
45440;PMS5003;31189;38.790;-77.084;2024-03-02T05:54:47;10;6;
45440;PMS5003;31189;38.790;-77.084;2024-03-02T05:57:13;9;6;
45440;PMS5003;31189;38.790;-77.084;2024-03-02T05:59:39;11;8;
45440;PMS5003;31189;38.790;-77.084;2024-03-02T06:02:04;9;6;
45440;PMS5003;31189;38.790;-77.084;2024-03-02T06:04:30;10;8;
45440;PMS5003;31189;38.790;-77.084;2024-03-02T06:06:56;9;6;
45440;PMS5003;31189;38.790;-77.084;2024-03-02T06:09:21;6;5;
45440;PMS5003;31189;38.790;-77.084;2024-03-02T06:11:47;10;7;
45440;PMS5003;31189;38.790;-77.084;2024-03-02T06:14:13;9;6;
45440;PMS5003;31189;38.790;-77.084;2024-03-02T06:16:38;8;8;
45440;PMS5003;31189;38.790;-77.084;2024-03-02T06:19:04;8;5;
45440;PMS5003;31189;38.790;-77.084;2024-03-02T06:21:30;6;6;
45440;PMS5003;31189;38.790;-77.084;2024-03-02T06:23:55;7;7;
45440;PMS5003;31189;38.790;-77.084;2024-03-02T06:26:21;7;6;
45440;PMS5003;31189;38.790;-77.084;2024-03-02T06:28:47;6;6;
45440;PMS5003;31189;38.790;-77.084;2024-03-02T06:31:13;8;8;
45440;PMS5003;31189;38.790;-77.084;2024-03-02T06:33:38;9;7;
45440;PMS5003;31189;38.790;-77.084;2024-03-02T06:36:04;7;5;
45440;PMS5003;31189;38.790;-77.084;2024-03-02T06:38:29;8;5;
45440;PMS5003;31189;38.790;-77.084;2024-03-02T06:40:55;6;5;
45440;PMS5003;31189;38.790;-77.084;2024-03-02T06:43:21;9;6;
45440;PMS5003;31189;38.790;-77.084;2024-03-02T06:45:47;9;5;
45440;PMS5003;31189;38.790;-77.084;2024-03-02T06:48:12;8;6;
45440;PMS5003;31189;38.790;-77.084;2024-03-02T06:50:38;5;5;
45440;PMS5003;31189;38.790;-77.084;2024-03-02T06:53:04;8;5;
45440;PMS5003;31189;38.790;-77.084;2024-03-02T06:55:29;7;5;
45440;PMS5003;31189;38.790;-77.084;2024-03-02T06:57:55;6;5;
45440;PMS5003;31189;38.790;-77.084;2024-03-02T07:00:21;6;5;
45440;PMS5003;31189;38.790;-77.084;2024-03-02T07:02:46;6;6;
45440;PMS5003;31189;38.790;-77.084;2024-03-02T07:05:12;10;6;
45440;PMS5003;31189;38.790;-77.084;2024-03-02T07:07:38;8;5;
45440;PMS5003;31189;38.790;-77.084;2024-03-02T07:10:04;13;6;
45440;PMS5003;31189;38.790;-77.084;2024-03-02T07:12:29;6;6;
45440;PMS5003;31189;38.790;-77.084;2024-03-02T07:14:55;7;6;
45440;PMS5003;31189;38.790;-77.084;2024-03-02T07:17:20;7;6;
45440;PMS5003;31189;38.790;-77.084;2024-03-02T07:19:46;5;4;
45440;PMS5003;31189;38.790;-77.084;2024-03-02T07:22:12;5;5;
45440;PMS5003;31189;38.790;-77.084;2024-03-02T07:24:39;5;4;
45440;PMS5003;31189;38.790;-77.084;2024-03-02T07:27:03;4;4;
45440;PMS5003;31189;38.790;-77.084;2024-03-02T07:29:29;6;4;
45440;PMS5003;31189;38.790;-77.084;2024-03-02T07:31:54;8;6;
45440;PMS5003;31189;38.790;-77.084;2024-03-02T07:34:20;6;5;
45440;PMS5003;31189;38.790;-77.084;2024-03-02T07:36:46;5;5;
45440;PMS5003;31189;38.790;-77.084;2024-03-02T07:39:11;5;4;
45440;PMS5003;31189;38.790;-77.084;2024-03-02T07:41:37;5;4;
45440;PMS5003;31189;38.790;-77.084;2024-03-02T07:44:03;5;5;
45440;PMS5003;31189;38.790;-77.084;2024-03-02T07:46:29;8;4;
45440;PMS5003;31189;38.790;-77.084;2024-03-02T07:48:54;7;5;
45440;PMS5003;31189;38.790;-77.084;2024-03-02T07:51:20;6;4;
45440;PMS5003;31189;38.790;-77.084;2024-03-02T07:53:46;5;4;
45440;PMS5003;31189;38.790;-77.084;2024-03-02T07:56:11;4;4;
45440;PMS5003;31189;38.790;-77.084;2024-03-02T07:58:37;4;4;
45440;PMS5003;31189;38.790;-77.084;2024-03-02T08:01:03;4;4;
45440;PMS5003;31189;38.790;-77.084;2024-03-02T08:03:28;8;5;
45440;PMS5003;31189;38.790;-77.084;2024-03-02T08:05:54;4;4;
45440;PMS5003;31189;38.790;-77.084;2024-03-02T08:08:19;14;5;
45440;PMS5003;31189;38.790;-77.084;2024-03-02T08:10:45;7;5;
45440;PMS5003;31189;38.790;-77.084;2024-03-02T08:13:11;5;3;
45440;PMS5003;31189;38.790;-77.084;2024-03-02T08:15:36;5;5;
45440;PMS5003;31189;38.790;-77.084;2024-03-02T08:18:02;6;6;
45440;PMS5003;31189;38.790;-77.084;2024-03-02T08:20:27;7;5;
45440;PMS5003;31189;38.790;-77.084;2024-03-02T08:22:52;9;6;
45440;PMS5003;31189;38.790;-77.084;2024-03-02T08:25:18;5;5;
45440;PMS5003;31189;38.790;-77.084;2024-03-02T08:27:44;4;4;
45440;PMS5003;31189;38.790;-77.084;2024-03-02T08:30:10;4;4;
45440;PMS5003;31189;38.790;-77.084;2024-03-02T08:32:35;9;7;
45440;PMS5003;31189;38.790;-77.084;2024-03-02T08:35:01;7;5;
45440;PMS5003;31189;38.790;-77.084;2024-03-02T08:37:27;5;4;
45440;PMS5003;31189;38.790;-77.084;2024-03-02T08:39:52;6;4;
45440;PMS5003;31189;38.790;-77.084;2024-03-02T08:42:18;6;5;
45440;PMS5003;31189;38.790;-77.084;2024-03-02T08:44:44;12;6;
45440;PMS5003;31189;38.790;-77.084;2024-03-02T08:47:09;6;5;
45440;PMS5003;31189;38.790;-77.084;2024-03-02T08:49:35;6;5;
45440;PMS5003;31189;38.790;-77.084;2024-03-02T08:52:00;5;5;
45440;PMS5003;31189;38.790;-77.084;2024-03-02T08:54:26;5;4;
45440;PMS5003;31189;38.790;-77.084;2024-03-02T08:56:52;7;4;
45440;PMS5003;31189;38.790;-77.084;2024-03-02T08:59:17;7;6;
45440;PMS5003;31189;38.790;-77.084;2024-03-02T09:01:43;7;7;
45440;PMS5003;31189;38.790;-77.084;2024-03-02T09:04:08;5;5;
45440;PMS5003;31189;38.790;-77.084;2024-03-02T09:06:34;8;6;
45440;PMS5003;31189;38.790;-77.084;2024-03-02T09:09:00;7;5;
45440;PMS5003;31189;38.790;-77.084;2024-03-02T09:11:25;6;6;
45440;PMS5003;31189;38.790;-77.084;2024-03-02T09:13:51;9;8;
45440;PMS5003;31189;38.790;-77.084;2024-03-02T09:16:17;7;6;
45440;PMS5003;31189;38.790;-77.084;2024-03-02T09:18:42;8;6;
45440;PMS5003;31189;38.790;-77.084;2024-03-02T09:21:08;8;5;
45440;PMS5003;31189;38.790;-77.084;2024-03-02T09:23:34;9;6;
45440;PMS5003;31189;38.790;-77.084;2024-03-02T09:25:59;6;5;
45440;PMS5003;31189;38.790;-77.084;2024-03-02T09:28:25;6;6;
45440;PMS5003;31189;38.790;-77.084;2024-03-02T09:30:50;7;7;
45440;PMS5003;31189;38.790;-77.084;2024-03-02T09:33:16;8;7;
45440;PMS5003;31189;38.790;-77.084;2024-03-02T09:35:42;10;8;
45440;PMS5003;31189;38.790;-77.084;2024-03-02T09:38:07;13;9;
45440;PMS5003;31189;38.790;-77.084;2024-03-02T09:40:33;9;8;
45440;PMS5003;31189;38.790;-77.084;2024-03-02T09:42:59;10;7;
45440;PMS5003;31189;38.790;-77.084;2024-03-02T09:45:26;12;8;
45440;PMS5003;31189;38.790;-77.084;2024-03-02T09:47:50;8;8;
45440;PMS5003;31189;38.790;-77.084;2024-03-02T09:50:16;9;7;
45440;PMS5003;31189;38.790;-77.084;2024-03-02T09:52:42;10;9;
45440;PMS5003;31189;38.790;-77.084;2024-03-02T09:55:07;13;9;
45440;PMS5003;31189;38.790;-77.084;2024-03-02T09:57:33;8;8;
45440;PMS5003;31189;38.790;-77.084;2024-03-02T09:59:58;15;9;
45440;PMS5003;31189;38.790;-77.084;2024-03-02T10:02:24;12;10;
45440;PMS5003;31189;38.790;-77.084;2024-03-02T10:04:50;12;10;
45440;PMS5003;31189;38.790;-77.084;2024-03-02T10:07:16;13;7;
45440;PMS5003;31189;38.790;-77.084;2024-03-02T10:09:42;17;12;
45440;PMS5003;31189;38.790;-77.084;2024-03-02T10:12:08;12;9;
45440;PMS5003;31189;38.790;-77.084;2024-03-02T10:14:32;19;10;
45440;PMS5003;31189;38.790;-77.084;2024-03-02T10:17:01;16;14;
45440;PMS5003;31189;38.790;-77.084;2024-03-02T10:19:23;15;13;
45440;PMS5003;31189;38.790;-77.084;2024-03-02T10:21:48;15;14;
45440;PMS5003;31189;38.790;-77.084;2024-03-02T10:24:14;9;9;
45440;PMS5003;31189;38.790;-77.084;2024-03-02T10:26:40;17;14;
45440;PMS5003;31189;38.790;-77.084;2024-03-02T10:29:05;16;12;
45440;PMS5003;31189;38.790;-77.084;2024-03-02T10:31:31;15;13;
45440;PMS5003;31189;38.790;-77.084;2024-03-02T10:33:57;18;14;
45440;PMS5003;31189;38.790;-77.084;2024-03-02T10:36:22;16;15;
45440;PMS5003;31189;38.790;-77.084;2024-03-02T10:38:47;15;15;
45440;PMS5003;31189;38.790;-77.084;2024-03-02T10:41:13;16;14;
45440;PMS5003;31189;38.790;-77.084;2024-03-02T10:43:38;20;17;
45440;PMS5003;31189;38.790;-77.084;2024-03-02T10:46:04;15;15;
45440;PMS5003;31189;38.790;-77.084;2024-03-02T10:48:29;14;13;
45440;PMS5003;31189;38.790;-77.084;2024-03-02T10:50:55;14;14;
45440;PMS5003;31189;38.790;-77.084;2024-03-02T10:53:21;12;12;
45440;PMS5003;31189;38.790;-77.084;2024-03-02T10:55:46;13;12;
45440;PMS5003;31189;38.790;-77.084;2024-03-02T10:58:11;14;11;
45440;PMS5003;31189;38.790;-77.084;2024-03-02T11:00:37;17;13;
45440;PMS5003;31189;38.790;-77.084;2024-03-02T11:03:04;13;12;
45440;PMS5003;31189;38.790;-77.084;2024-03-02T11:05:31;15;12;
45440;PMS5003;31189;38.790;-77.084;2024-03-02T11:07:57;26;13;
45440;PMS5003;31189;38.790;-77.084;2024-03-02T11:10:19;16;15;
45440;PMS5003;31189;38.790;-77.084;2024-03-02T11:12:47;14;14;
45440;PMS5003;31189;38.790;-77.084;2024-03-02T11:15:11;18;15;
45440;PMS5003;31189;38.790;-77.084;2024-03-02T11:17:36;12;12;
45440;PMS5003;31189;38.790;-77.084;2024-03-02T11:20:03;13;12;
45440;PMS5003;31189;38.790;-77.084;2024-03-02T11:22:28;14;13;
45440;PMS5003;31189;38.790;-77.084;2024-03-02T11:24:53;13;13;
45440;PMS5003;31189;38.790;-77.084;2024-03-02T11:29:45;13;13;
45440;PMS5003;31189;38.790;-77.084;2024-03-02T11:32:14;15;13;
45440;PMS5003;31189;38.790;-77.084;2024-03-02T11:34:36;22;16;
45440;PMS5003;31189;38.790;-77.084;2024-03-02T11:37:02;18;15;
45440;PMS5003;31189;38.790;-77.084;2024-03-02T11:39:27;14;14;
45440;PMS5003;31189;38.790;-77.084;2024-03-02T11:41:52;16;13;
45440;PMS5003;31189;38.790;-77.084;2024-03-02T11:44:18;14;14;
45440;PMS5003;31189;38.790;-77.084;2024-03-02T11:46:44;18;15;
45440;PMS5003;31189;38.790;-77.084;2024-03-02T11:49:09;13;13;
45440;PMS5003;31189;38.790;-77.084;2024-03-02T11:51:35;15;14;
45440;PMS5003;31189;38.790;-77.084;2024-03-02T11:54:00;13;12;
45440;PMS5003;31189;38.790;-77.084;2024-03-02T11:56:26;15;14;
45440;PMS5003;31189;38.790;-77.084;2024-03-02T11:58:52;15;13;
45440;PMS5003;31189;38.790;-77.084;2024-03-02T12:01:17;14;13;
45440;PMS5003;31189;38.790;-77.084;2024-03-02T12:03:42;14;13;
45440;PMS5003;31189;38.790;-77.084;2024-03-02T12:06:08;12;12;
45440;PMS5003;31189;38.790;-77.084;2024-03-02T12:08:34;13;12;
45440;PMS5003;31189;38.790;-77.084;2024-03-02T12:11:00;13;11;
45440;PMS5003;31189;38.790;-77.084;2024-03-02T12:13:25;13;13;
45440;PMS5003;31189;38.790;-77.084;2024-03-02T12:15:53;15;15;
45440;PMS5003;31189;38.790;-77.084;2024-03-02T12:18:16;15;12;
45440;PMS5003;31189;38.790;-77.084;2024-03-02T12:20:42;25;14;
45440;PMS5003;31189;38.790;-77.084;2024-03-02T12:23:07;21;14;
45440;PMS5003;31189;38.790;-77.084;2024-03-02T12:25:33;11;10;
45440;PMS5003;31189;38.790;-77.084;2024-03-02T12:27:59;13;12;
45440;PMS5003;31189;38.790;-77.084;2024-03-02T12:30:24;11;11;
45440;PMS5003;31189;38.790;-77.084;2024-03-02T12:32:49;12;12;
45440;PMS5003;31189;38.790;-77.084;2024-03-02T12:35:15;12;10;
45440;PMS5003;31189;38.790;-77.084;2024-03-02T12:37:42;13;10;
45440;PMS5003;31189;38.790;-77.084;2024-03-02T12:40:07;11;10;
45440;PMS5003;31189;38.790;-77.084;2024-03-02T12:42:32;10;9;
45440;PMS5003;31189;38.790;-77.084;2024-03-02T12:44:58;10;10;
45440;PMS5003;31189;38.790;-77.084;2024-03-02T12:47:23;13;10;
45440;PMS5003;31189;38.790;-77.084;2024-03-02T12:49:49;8;8;
45440;PMS5003;31189;38.790;-77.084;2024-03-02T12:52:15;12;10;
45440;PMS5003;31189;38.790;-77.084;2024-03-02T12:54:40;9;9;
45440;PMS5003;31189;38.790;-77.084;2024-03-02T12:57:06;11;10;
45440;PMS5003;31189;38.790;-77.084;2024-03-02T12:59:32;12;10;
45440;PMS5003;31189;38.790;-77.084;2024-03-02T13:01:57;11;11;
45440;PMS5003;31189;38.790;-77.084;2024-03-02T13:04:24;10;9;
45440;PMS5003;31189;38.790;-77.084;2024-03-02T13:06:49;12;12;
45440;PMS5003;31189;38.790;-77.084;2024-03-02T13:09:15;13;12;
45440;PMS5003;31189;38.790;-77.084;2024-03-02T13:11:40;9;9;
45440;PMS5003;31189;38.790;-77.084;2024-03-02T13:14:06;16;13;
45440;PMS5003;31189;38.790;-77.084;2024-03-02T13:16:31;12;10;
45440;PMS5003;31189;38.790;-77.084;2024-03-02T13:18:57;14;11;
45440;PMS5003;31189;38.790;-77.084;2024-03-02T13:21:22;16;13;
45440;PMS5003;31189;38.790;-77.084;2024-03-02T13:23:47;10;10;
45440;PMS5003;31189;38.790;-77.084;2024-03-02T13:26:13;10;10;
45440;PMS5003;31189;38.790;-77.084;2024-03-02T13:28:39;9;9;
45440;PMS5003;31189;38.790;-77.084;2024-03-02T13:31:04;10;9;
45440;PMS5003;31189;38.790;-77.084;2024-03-02T13:33:30;10;10;
45440;PMS5003;31189;38.790;-77.084;2024-03-02T13:35:56;11;10;
45440;PMS5003;31189;38.790;-77.084;2024-03-02T13:38:22;6;6;
45440;PMS5003;31189;38.790;-77.084;2024-03-02T13:40:48;9;8;
45440;PMS5003;31189;38.790;-77.084;2024-03-02T13:43:13;10;9;
45440;PMS5003;31189;38.790;-77.084;2024-03-02T13:45:38;11;7;
45440;PMS5003;31189;38.790;-77.084;2024-03-02T13:48:06;9;9;
45440;PMS5003;31189;38.790;-77.084;2024-03-02T13:50:30;8;7;
45440;PMS5003;31189;38.790;-77.084;2024-03-02T13:52:55;7;7;
45440;PMS5003;31189;38.790;-77.084;2024-03-02T13:55:21;8;8;
45440;PMS5003;31189;38.790;-77.084;2024-03-02T13:57:47;7;7;
45440;PMS5003;31189;38.790;-77.084;2024-03-02T14:00:13;6;6;
45440;PMS5003;31189;38.790;-77.084;2024-03-02T14:02:38;8;8;
45440;PMS5003;31189;38.790;-77.084;2024-03-02T14:05:04;12;10;
45440;PMS5003;31189;38.790;-77.084;2024-03-02T14:07:29;8;8;
45440;PMS5003;31189;38.790;-77.084;2024-03-02T14:09:56;9;9;
45440;PMS5003;31189;38.790;-77.084;2024-03-02T14:12:20;10;10;
45440;PMS5003;31189;38.790;-77.084;2024-03-02T14:14:46;9;8;
45440;PMS5003;31189;38.790;-77.084;2024-03-02T14:17:11;9;6;
45440;PMS5003;31189;38.790;-77.084;2024-03-02T14:19:37;7;7;
45440;PMS5003;31189;38.790;-77.084;2024-03-02T14:22:03;10;8;
45440;PMS5003;31189;38.790;-77.084;2024-03-02T14:24:28;8;8;
45440;PMS5003;31189;38.790;-77.084;2024-03-02T14:26:54;10;10;
45440;PMS5003;31189;38.790;-77.084;2024-03-02T14:29:20;9;5;
45440;PMS5003;31189;38.790;-77.084;2024-03-02T14:31:46;7;5;
45440;PMS5003;31189;38.790;-77.084;2024-03-02T14:34:11;6;6;
45440;PMS5003;31189;38.790;-77.084;2024-03-02T14:36:37;5;5;
45440;PMS5003;31189;38.790;-77.084;2024-03-02T14:39:02;8;6;
45440;PMS5003;31189;38.790;-77.084;2024-03-02T14:41:28;5;5;
45440;PMS5003;31189;38.790;-77.084;2024-03-02T14:43:54;5;5;
45440;PMS5003;31189;38.790;-77.084;2024-03-02T14:46:19;5;5;
45440;PMS5003;31189;38.790;-77.084;2024-03-02T14:48:45;3;3;
45440;PMS5003;31189;38.790;-77.084;2024-03-02T14:51:10;5;4;
45440;PMS5003;31189;38.790;-77.084;2024-03-02T14:53:36;6;5;
45440;PMS5003;31189;38.790;-77.084;2024-03-02T14:56:03;4;4;
45440;PMS5003;31189;38.790;-77.084;2024-03-02T14:58:28;6;6;
45440;PMS5003;31189;38.790;-77.084;2024-03-02T15:00:53;5;4;
45440;PMS5003;31189;38.790;-77.084;2024-03-02T15:03:19;8;8;
45440;PMS5003;31189;38.790;-77.084;2024-03-02T15:05:44;4;4;
45440;PMS5003;31189;38.790;-77.084;2024-03-02T15:08:10;5;4;
45440;PMS5003;31189;38.790;-77.084;2024-03-02T15:10:36;4;4;
45440;PMS5003;31189;38.790;-77.084;2024-03-02T15:13:01;4;4;
45440;PMS5003;31189;38.790;-77.084;2024-03-02T15:15:27;5;5;
45440;PMS5003;31189;38.790;-77.084;2024-03-02T15:17:53;6;5;
45440;PMS5003;31189;38.790;-77.084;2024-03-02T15:20:18;5;2;
45440;PMS5003;31189;38.790;-77.084;2024-03-02T15:22:44;5;5;
45440;PMS5003;31189;38.790;-77.084;2024-03-02T15:25:09;5;5;
45440;PMS5003;31189;38.790;-77.084;2024-03-02T15:27:35;4;4;
45440;PMS5003;31189;38.790;-77.084;2024-03-02T15:30:01;4;4;
45440;PMS5003;31189;38.790;-77.084;2024-03-02T15:32:26;4;4;
45440;PMS5003;31189;38.790;-77.084;2024-03-02T15:34:52;4;4;
45440;PMS5003;31189;38.790;-77.084;2024-03-02T15:37:18;4;4;
45440;PMS5003;31189;38.790;-77.084;2024-03-02T15:39:44;7;5;
45440;PMS5003;31189;38.790;-77.084;2024-03-02T15:42:09;4;4;
45440;PMS5003;31189;38.790;-77.084;2024-03-02T15:44:35;3;2;
45440;PMS5003;31189;38.790;-77.084;2024-03-02T15:47:00;2;2;
45440;PMS5003;31189;38.790;-77.084;2024-03-02T15:49:26;3;3;
45440;PMS5003;31189;38.790;-77.084;2024-03-02T15:51:52;4;3;
45440;PMS5003;31189;38.790;-77.084;2024-03-02T15:54:17;3;2;
45440;PMS5003;31189;38.790;-77.084;2024-03-02T15:56:43;5;4;
45440;PMS5003;31189;38.790;-77.084;2024-03-02T15:59:09;5;2;